sensor_id;sensor_type;location;lat;lon;timestamp;P1;durP1;ratioP1;P2;durP2;ratioP2
7965;SDS011;4028;43.272;26.932;2023-07-29T00:00:45;3.40;;;3.10;;
7965;SDS011;4028;43.272;26.932;2023-07-29T00:03:11;3.47;;;2.90;;
7965;SDS011;4028;43.272;26.932;2023-07-29T00:05:37;2.83;;;2.63;;
7965;SDS011;4028;43.272;26.932;2023-07-29T00:08:03;4.00;;;2.80;;
7965;SDS011;4028;43.272;26.932;2023-07-29T00:10:28;4.07;;;2.60;;
7965;SDS011;4028;43.272;26.932;2023-07-29T00:12:56;5.22;;;2.88;;
7965;SDS011;4028;43.272;26.932;2023-07-29T00:15:21;2.50;;;2.10;;
7965;SDS011;4028;43.272;26.932;2023-07-29T00:17:47;2.53;;;2.33;;
7965;SDS011;4028;43.272;26.932;2023-07-29T00:20:12;2.50;;;2.10;;
7965;SDS011;4028;43.272;26.932;2023-07-29T00:22:38;4.75;;;2.30;;
7965;SDS011;4028;43.272;26.932;2023-07-29T00:25:03;3.78;;;2.40;;
7965;SDS011;4028;43.272;26.932;2023-07-29T00:27:29;4.15;;;2.40;;
7965;SDS011;4028;43.272;26.932;2023-07-29T00:29:54;2.20;;;2.00;;
7965;SDS011;4028;43.272;26.932;2023-07-29T00:32:20;2.13;;;1.92;;
7965;SDS011;4028;43.272;26.932;2023-07-29T00:34:45;4.03;;;2.40;;
7965;SDS011;4028;43.272;26.932;2023-07-29T00:37:10;2.40;;;2.20;;
7965;SDS011;4028;43.272;26.932;2023-07-29T00:39:37;2.38;;;2.17;;
7965;SDS011;4028;43.272;26.932;2023-07-29T00:42:03;2.70;;;2.50;;
7965;SDS011;4028;43.272;26.932;2023-07-29T00:44:29;2.83;;;2.50;;
7965;SDS011;4028;43.272;26.932;2023-07-29T00:46:56;2.80;;;2.53;;
7965;SDS011;4028;43.272;26.932;2023-07-29T00:49:22;2.90;;;2.33;;
7965;SDS011;4028;43.272;26.932;2023-07-29T00:51:48;3.58;;;2.15;;
7965;SDS011;4028;43.272;26.932;2023-07-29T00:54:14;3.15;;;2.60;;
7965;SDS011;4028;43.272;26.932;2023-07-29T00:56:40;2.50;;;2.28;;
7965;SDS011;4028;43.272;26.932;2023-07-29T00:59:05;2.22;;;2.08;;
7965;SDS011;4028;43.272;26.932;2023-07-29T01:01:31;2.90;;;2.40;;
7965;SDS011;4028;43.272;26.932;2023-07-29T01:03:57;4.28;;;2.40;;
7965;SDS011;4028;43.272;26.932;2023-07-29T01:12:23;2.58;;;2.20;;
7965;SDS011;4028;43.272;26.932;2023-07-29T01:17:49;2.50;;;2.20;;
7965;SDS011;4028;43.272;26.932;2023-07-29T01:20:20;3.70;;;2.22;;
7965;SDS011;4028;43.272;26.932;2023-07-29T01:22:49;4.40;;;2.27;;
7965;SDS011;4028;43.272;26.932;2023-07-29T01:25:14;3.42;;;2.30;;
7965;SDS011;4028;43.272;26.932;2023-07-29T01:27:41;2.90;;;2.13;;
7965;SDS011;4028;43.272;26.932;2023-07-29T01:30:08;2.85;;;2.10;;
7965;SDS011;4028;43.272;26.932;2023-07-29T01:32:40;2.50;;;2.30;;
7965;SDS011;4028;43.272;26.932;2023-07-29T01:37:40;3.13;;;2.17;;
7965;SDS011;4028;43.272;26.932;2023-07-29T01:40:06;2.38;;;2.17;;
7965;SDS011;4028;43.272;26.932;2023-07-29T01:42:34;4.30;;;2.50;;
7965;SDS011;4028;43.272;26.932;2023-07-29T01:45:00;2.70;;;2.50;;
7965;SDS011;4028;43.272;26.932;2023-07-29T01:47:25;4.23;;;2.43;;
7965;SDS011;4028;43.272;26.932;2023-07-29T01:49:51;2.30;;;2.10;;
7965;SDS011;4028;43.272;26.932;2023-07-29T01:52:16;3.03;;;2.28;;
7965;SDS011;4028;43.272;26.932;2023-07-29T01:54:42;2.90;;;2.30;;
7965;SDS011;4028;43.272;26.932;2023-07-29T01:57:07;4.97;;;2.73;;
7965;SDS011;4028;43.272;26.932;2023-07-29T01:59:33;2.50;;;2.30;;
7965;SDS011;4028;43.272;26.932;2023-07-29T02:01:58;2.80;;;2.40;;
7965;SDS011;4028;43.272;26.932;2023-07-29T02:04:24;4.73;;;2.40;;
7965;SDS011;4028;43.272;26.932;2023-07-29T02:06:49;3.80;;;2.20;;
7965;SDS011;4028;43.272;26.932;2023-07-29T02:09:15;2.67;;;2.27;;
7965;SDS011;4028;43.272;26.932;2023-07-29T02:11:40;3.77;;;2.73;;
7965;SDS011;4028;43.272;26.932;2023-07-29T02:14:05;6.53;;;2.40;;
7965;SDS011;4028;43.272;26.932;2023-07-29T02:16:31;3.83;;;2.20;;
7965;SDS011;4028;43.272;26.932;2023-07-29T02:18:58;4.23;;;2.80;;
7965;SDS011;4028;43.272;26.932;2023-07-29T02:21:23;2.53;;;2.10;;
7965;SDS011;4028;43.272;26.932;2023-07-29T02:23:48;2.80;;;2.50;;
7965;SDS011;4028;43.272;26.932;2023-07-29T02:26:14;2.60;;;2.30;;
7965;SDS011;4028;43.272;26.932;2023-07-29T02:28:39;2.93;;;2.30;;
7965;SDS011;4028;43.272;26.932;2023-07-29T02:33:41;2.43;;;2.10;;
7965;SDS011;4028;43.272;26.932;2023-07-29T02:36:07;3.67;;;2.43;;
7965;SDS011;4028;43.272;26.932;2023-07-29T02:38:33;2.53;;;2.33;;
7965;SDS011;4028;43.272;26.932;2023-07-29T02:40:58;3.80;;;2.50;;
7965;SDS011;4028;43.272;26.932;2023-07-29T02:43:24;3.93;;;2.40;;
7965;SDS011;4028;43.272;26.932;2023-07-29T02:45:49;3.80;;;2.30;;
7965;SDS011;4028;43.272;26.932;2023-07-29T02:48:15;3.67;;;2.30;;
7965;SDS011;4028;43.272;26.932;2023-07-29T02:50:40;5.10;;;2.50;;
7965;SDS011;4028;43.272;26.932;2023-07-29T02:53:05;2.60;;;2.40;;
7965;SDS011;4028;43.272;26.932;2023-07-29T02:55:31;4.57;;;2.60;;
7965;SDS011;4028;43.272;26.932;2023-07-29T02:57:56;4.93;;;2.87;;
7965;SDS011;4028;43.272;26.932;2023-07-29T03:00:22;3.70;;;2.63;;
7965;SDS011;4028;43.272;26.932;2023-07-29T03:02:47;2.77;;;2.27;;
7965;SDS011;4028;43.272;26.932;2023-07-29T03:05:13;3.53;;;2.70;;
7965;SDS011;4028;43.272;26.932;2023-07-29T03:07:38;4.23;;;2.57;;
7965;SDS011;4028;43.272;26.932;2023-07-29T03:10:04;3.63;;;2.57;;
7965;SDS011;4028;43.272;26.932;2023-07-29T03:12:30;5.00;;;2.80;;
7965;SDS011;4028;43.272;26.932;2023-07-29T03:14:56;3.43;;;2.67;;
7965;SDS011;4028;43.272;26.932;2023-07-29T03:17:21;4.63;;;3.10;;
7965;SDS011;4028;43.272;26.932;2023-07-29T03:19:47;4.27;;;2.60;;
7965;SDS011;4028;43.272;26.932;2023-07-29T03:22:12;2.80;;;2.37;;
7965;SDS011;4028;43.272;26.932;2023-07-29T03:24:38;3.67;;;2.57;;
7965;SDS011;4028;43.272;26.932;2023-07-29T03:27:03;5.50;;;2.83;;
7965;SDS011;4028;43.272;26.932;2023-07-29T03:29:29;3.30;;;2.97;;
7965;SDS011;4028;43.272;26.932;2023-07-29T03:31:54;2.80;;;2.50;;
7965;SDS011;4028;43.272;26.932;2023-07-29T03:34:20;4.93;;;3.83;;
7965;SDS011;4028;43.272;26.932;2023-07-29T03:36:45;3.43;;;3.00;;
7965;SDS011;4028;43.272;26.932;2023-07-29T03:39:12;3.57;;;3.00;;
7965;SDS011;4028;43.272;26.932;2023-07-29T03:41:39;4.93;;;3.30;;
7965;SDS011;4028;43.272;26.932;2023-07-29T03:44:04;4.67;;;3.03;;
7965;SDS011;4028;43.272;26.932;2023-07-29T03:46:30;4.57;;;3.07;;
7965;SDS011;4028;43.272;26.932;2023-07-29T03:48:56;3.80;;;2.60;;
7965;SDS011;4028;43.272;26.932;2023-07-29T03:51:22;2.95;;;2.75;;
7965;SDS011;4028;43.272;26.932;2023-07-29T03:53:49;4.28;;;2.63;;
7965;SDS011;4028;43.272;26.932;2023-07-29T03:56:15;5.93;;;2.70;;
7965;SDS011;4028;43.272;26.932;2023-07-29T03:58:40;7.60;;;2.90;;
7965;SDS011;4028;43.272;26.932;2023-07-29T04:01:06;3.30;;;2.72;;
7965;SDS011;4028;43.272;26.932;2023-07-29T04:03:33;4.38;;;2.95;;
7965;SDS011;4028;43.272;26.932;2023-07-29T04:05:59;7.75;;;3.05;;
7965;SDS011;4028;43.272;26.932;2023-07-29T04:08:24;5.93;;;3.25;;
7965;SDS011;4028;43.272;26.932;2023-07-29T04:10:50;7.47;;;3.30;;
7965;SDS011;4028;43.272;26.932;2023-07-29T04:13:16;7.65;;;3.38;;
7965;SDS011;4028;43.272;26.932;2023-07-29T04:15:41;10.25;;;3.90;;
7965;SDS011;4028;43.272;26.932;2023-07-29T04:18:07;10.95;;;4.30;;
7965;SDS011;4028;43.272;26.932;2023-07-29T04:20:32;6.93;;;3.92;;
7965;SDS011;4028;43.272;26.932;2023-07-29T04:22:58;8.45;;;3.60;;
7965;SDS011;4028;43.272;26.932;2023-07-29T04:25:24;6.13;;;3.97;;
7965;SDS011;4028;43.272;26.932;2023-07-29T04:27:49;6.93;;;3.75;;
7965;SDS011;4028;43.272;26.932;2023-07-29T04:30:15;7.90;;;4.38;;
7965;SDS011;4028;43.272;26.932;2023-07-29T04:32:40;9.32;;;4.50;;
7965;SDS011;4028;43.272;26.932;2023-07-29T04:35:07;5.55;;;4.00;;
7965;SDS011;4028;43.272;26.932;2023-07-29T04:37:33;7.70;;;3.80;;
7965;SDS011;4028;43.272;26.932;2023-07-29T04:39:59;8.80;;;4.00;;
7965;SDS011;4028;43.272;26.932;2023-07-29T04:42:24;5.80;;;3.85;;
7965;SDS011;4028;43.272;26.932;2023-07-29T04:44:50;5.60;;;3.85;;
7965;SDS011;4028;43.272;26.932;2023-07-29T04:47:15;6.72;;;3.10;;
7965;SDS011;4028;43.272;26.932;2023-07-29T04:49:41;3.30;;;2.88;;
7965;SDS011;4028;43.272;26.932;2023-07-29T04:52:06;3.25;;;2.90;;
7965;SDS011;4028;43.272;26.932;2023-07-29T04:54:32;4.00;;;2.92;;
7965;SDS011;4028;43.272;26.932;2023-07-29T04:56:57;3.35;;;3.05;;
7965;SDS011;4028;43.272;26.932;2023-07-29T04:59:23;5.82;;;3.20;;
7965;SDS011;4028;43.272;26.932;2023-07-29T05:01:48;4.55;;;3.58;;
7965;SDS011;4028;43.272;26.932;2023-07-29T05:04:14;11.70;;;4.72;;
7965;SDS011;4028;43.272;26.932;2023-07-29T05:06:39;5.32;;;4.10;;
7965;SDS011;4028;43.272;26.932;2023-07-29T05:09:14;3.83;;;3.53;;
7965;SDS011;4028;43.272;26.932;2023-07-29T05:11:41;4.95;;;3.53;;
7965;SDS011;4028;43.272;26.932;2023-07-29T05:14:08;9.27;;;3.80;;
7965;SDS011;4028;43.272;26.932;2023-07-29T05:16:34;4.55;;;4.15;;
7965;SDS011;4028;43.272;26.932;2023-07-29T05:19:00;7.18;;;4.18;;
7965;SDS011;4028;43.272;26.932;2023-07-29T05:21:25;10.55;;;3.92;;
7965;SDS011;4028;43.272;26.932;2023-07-29T05:23:51;6.22;;;3.65;;
7965;SDS011;4028;43.272;26.932;2023-07-29T05:26:16;5.55;;;3.90;;
7965;SDS011;4028;43.272;26.932;2023-07-29T05:28:42;5.18;;;3.40;;
7965;SDS011;4028;43.272;26.932;2023-07-29T05:31:07;4.53;;;3.67;;
7965;SDS011;4028;43.272;26.932;2023-07-29T05:33:32;6.18;;;3.72;;
7965;SDS011;4028;43.272;26.932;2023-07-29T05:35:58;6.30;;;3.65;;
7965;SDS011;4028;43.272;26.932;2023-07-29T05:38:23;7.28;;;4.18;;
7965;SDS011;4028;43.272;26.932;2023-07-29T05:40:49;8.75;;;4.40;;
7965;SDS011;4028;43.272;26.932;2023-07-29T05:43:14;8.50;;;4.07;;
7965;SDS011;4028;43.272;26.932;2023-07-29T05:45:40;6.70;;;3.97;;
7965;SDS011;4028;43.272;26.932;2023-07-29T05:48:05;8.50;;;4.45;;
7965;SDS011;4028;43.272;26.932;2023-07-29T05:50:31;4.63;;;4.22;;
7965;SDS011;4028;43.272;26.932;2023-07-29T05:52:56;6.63;;;4.13;;
7965;SDS011;4028;43.272;26.932;2023-07-29T05:55:21;8.25;;;4.13;;
7965;SDS011;4028;43.272;26.932;2023-07-29T05:57:47;4.75;;;4.35;;
7965;SDS011;4028;43.272;26.932;2023-07-29T06:00:12;4.88;;;4.35;;
7965;SDS011;4028;43.272;26.932;2023-07-29T06:02:38;6.38;;;4.15;;
7965;SDS011;4028;43.272;26.932;2023-07-29T06:05:06;6.45;;;4.97;;
7965;SDS011;4028;43.272;26.932;2023-07-29T06:07:32;7.38;;;4.15;;
7965;SDS011;4028;43.272;26.932;2023-07-29T06:09:58;7.30;;;5.18;;
7965;SDS011;4028;43.272;26.932;2023-07-29T06:12:24;7.57;;;4.03;;
7965;SDS011;4028;43.272;26.932;2023-07-29T06:14:50;6.57;;;4.30;;
7965;SDS011;4028;43.272;26.932;2023-07-29T06:17:15;5.35;;;4.35;;
7965;SDS011;4028;43.272;26.932;2023-07-29T06:19:41;6.07;;;4.82;;
7965;SDS011;4028;43.272;26.932;2023-07-29T06:22:06;5.00;;;3.85;;
7965;SDS011;4028;43.272;26.932;2023-07-29T06:24:32;7.03;;;4.18;;
7965;SDS011;4028;43.272;26.932;2023-07-29T06:26:57;6.97;;;4.75;;
7965;SDS011;4028;43.272;26.932;2023-07-29T06:29:23;5.85;;;4.53;;
7965;SDS011;4028;43.272;26.932;2023-07-29T06:31:49;7.13;;;4.80;;
7965;SDS011;4028;43.272;26.932;2023-07-29T06:34:16;5.30;;;4.55;;
7965;SDS011;4028;43.272;26.932;2023-07-29T06:36:43;6.85;;;4.38;;
7965;SDS011;4028;43.272;26.932;2023-07-29T06:39:09;4.38;;;4.00;;
7965;SDS011;4028;43.272;26.932;2023-07-29T06:41:35;4.60;;;4.20;;
7965;SDS011;4028;43.272;26.932;2023-07-29T06:44:00;4.57;;;4.13;;
7965;SDS011;4028;43.272;26.932;2023-07-29T06:46:26;5.07;;;3.90;;
7965;SDS011;4028;43.272;26.932;2023-07-29T06:48:51;7.00;;;4.10;;
7965;SDS011;4028;43.272;26.932;2023-07-29T06:51:17;5.57;;;3.83;;
7965;SDS011;4028;43.272;26.932;2023-07-29T06:53:42;8.02;;;3.78;;
7965;SDS011;4028;43.272;26.932;2023-07-29T06:56:08;8.70;;;4.07;;
7965;SDS011;4028;43.272;26.932;2023-07-29T06:58:34;5.82;;;4.15;;
7965;SDS011;4028;43.272;26.932;2023-07-29T07:00:59;5.00;;;4.00;;
7965;SDS011;4028;43.272;26.932;2023-07-29T07:03:25;5.53;;;4.25;;
7965;SDS011;4028;43.272;26.932;2023-07-29T07:05:50;4.60;;;4.20;;
7965;SDS011;4028;43.272;26.932;2023-07-29T07:08:16;7.70;;;4.10;;
7965;SDS011;4028;43.272;26.932;2023-07-29T07:10:41;5.60;;;4.10;;
7965;SDS011;4028;43.272;26.932;2023-07-29T07:13:07;5.82;;;3.65;;
7965;SDS011;4028;43.272;26.932;2023-07-29T07:15:32;4.03;;;3.65;;
7965;SDS011;4028;43.272;26.932;2023-07-29T07:17:58;4.05;;;3.28;;
7965;SDS011;4028;43.272;26.932;2023-07-29T07:20:23;4.00;;;3.65;;
7965;SDS011;4028;43.272;26.932;2023-07-29T07:22:48;6.32;;;3.42;;
7965;SDS011;4028;43.272;26.932;2023-07-29T07:25:14;4.97;;;3.47;;
7965;SDS011;4028;43.272;26.932;2023-07-29T07:27:39;3.80;;;3.40;;
7965;SDS011;4028;43.272;26.932;2023-07-29T07:30:05;4.63;;;3.15;;
7965;SDS011;4028;43.272;26.932;2023-07-29T07:32:31;5.00;;;3.63;;
7965;SDS011;4028;43.272;26.932;2023-07-29T07:34:56;6.22;;;3.75;;
7965;SDS011;4028;43.272;26.932;2023-07-29T07:37:22;3.42;;;3.13;;
7965;SDS011;4028;43.272;26.932;2023-07-29T07:39:47;5.80;;;3.70;;
7965;SDS011;4028;43.272;26.932;2023-07-29T07:42:13;3.53;;;3.20;;
7965;SDS011;4028;43.272;26.932;2023-07-29T07:44:38;3.67;;;3.38;;
7965;SDS011;4028;43.272;26.932;2023-07-29T07:47:04;5.15;;;3.47;;
7965;SDS011;4028;43.272;26.932;2023-07-29T07:49:29;5.13;;;3.30;;
7965;SDS011;4028;43.272;26.932;2023-07-29T07:51:55;5.35;;;3.63;;
7965;SDS011;4028;43.272;26.932;2023-07-29T07:54:20;6.15;;;3.40;;
7965;SDS011;4028;43.272;26.932;2023-07-29T07:56:45;6.05;;;3.70;;
7965;SDS011;4028;43.272;26.932;2023-07-29T07:59:11;4.30;;;3.90;;
7965;SDS011;4028;43.272;26.932;2023-07-29T08:01:37;5.88;;;3.90;;
7965;SDS011;4028;43.272;26.932;2023-07-29T08:04:03;6.20;;;3.55;;
7965;SDS011;4028;43.272;26.932;2023-07-29T08:06:29;3.72;;;3.42;;
7965;SDS011;4028;43.272;26.932;2023-07-29T08:08:55;3.70;;;3.40;;
7965;SDS011;4028;43.272;26.932;2023-07-29T08:11:21;4.13;;;3.72;;
7965;SDS011;4028;43.272;26.932;2023-07-29T08:13:46;5.05;;;3.50;;
7965;SDS011;4028;43.272;26.932;2023-07-29T08:16:12;3.53;;;3.22;;
7965;SDS011;4028;43.272;26.932;2023-07-29T08:18:38;6.25;;;3.63;;
7965;SDS011;4028;43.272;26.932;2023-07-29T08:21:04;5.32;;;3.92;;
7965;SDS011;4028;43.272;26.932;2023-07-29T08:23:33;4.68;;;3.47;;
7965;SDS011;4028;43.272;26.932;2023-07-29T08:26:00;3.78;;;3.47;;
7965;SDS011;4028;43.272;26.932;2023-07-29T08:28:31;6.00;;;3.70;;
7965;SDS011;4028;43.272;26.932;2023-07-29T08:30:57;5.65;;;4.00;;
7965;SDS011;4028;43.272;26.932;2023-07-29T08:33:23;4.32;;;3.60;;
7965;SDS011;4028;43.272;26.932;2023-07-29T08:35:49;4.82;;;3.33;;
7965;SDS011;4028;43.272;26.932;2023-07-29T08:38:15;4.38;;;3.90;;
7965;SDS011;4028;43.272;26.932;2023-07-29T08:41:01;6.38;;;3.95;;
7965;SDS011;4028;43.272;26.932;2023-07-29T08:43:34;3.90;;;3.42;;
7965;SDS011;4028;43.272;26.932;2023-07-29T08:46:03;4.43;;;3.70;;
7965;SDS011;4028;43.272;26.932;2023-07-29T08:48:41;4.10;;;3.80;;
7965;SDS011;4028;43.272;26.932;2023-07-29T08:51:08;3.83;;;3.47;;
7965;SDS011;4028;43.272;26.932;2023-07-29T08:53:35;4.70;;;3.88;;
7965;SDS011;4028;43.272;26.932;2023-07-29T08:56:01;3.40;;;3.10;;
7965;SDS011;4028;43.272;26.932;2023-07-29T08:58:27;4.15;;;3.83;;
7965;SDS011;4028;43.272;26.932;2023-07-29T09:00:52;4.07;;;3.10;;
7965;SDS011;4028;43.272;26.932;2023-07-29T09:03:19;4.72;;;3.45;;
7965;SDS011;4028;43.272;26.932;2023-07-29T09:05:45;3.65;;;3.35;;
7965;SDS011;4028;43.272;26.932;2023-07-29T09:08:11;5.43;;;3.28;;
7965;SDS011;4028;43.272;26.932;2023-07-29T09:10:37;3.95;;;3.55;;
7965;SDS011;4028;43.272;26.932;2023-07-29T09:13:03;3.75;;;3.28;;
7965;SDS011;4028;43.272;26.932;2023-07-29T09:15:31;4.88;;;3.60;;
7965;SDS011;4028;43.272;26.932;2023-07-29T09:17:57;5.38;;;3.22;;
7965;SDS011;4028;43.272;26.932;2023-07-29T09:20:26;5.60;;;2.90;;
7965;SDS011;4028;43.272;26.932;2023-07-29T09:22:57;3.88;;;3.35;;
7965;SDS011;4028;43.272;26.932;2023-07-29T09:25:28;3.15;;;2.90;;
7965;SDS011;4028;43.272;26.932;2023-07-29T09:28:00;4.65;;;3.65;;
7965;SDS011;4028;43.272;26.932;2023-07-29T09:30:27;3.50;;;3.25;;
7965;SDS011;4028;43.272;26.932;2023-07-29T09:32:56;3.13;;;2.90;;
7965;SDS011;4028;43.272;26.932;2023-07-29T09:35:22;3.42;;;3.10;;
7965;SDS011;4028;43.272;26.932;2023-07-29T09:37:48;3.38;;;3.03;;
7965;SDS011;4028;43.272;26.932;2023-07-29T09:40:14;3.95;;;3.20;;
7965;SDS011;4028;43.272;26.932;2023-07-29T09:42:47;3.10;;;2.90;;
7965;SDS011;4028;43.272;26.932;2023-07-29T09:45:19;3.35;;;3.05;;
7965;SDS011;4028;43.272;26.932;2023-07-29T09:47:48;4.15;;;3.10;;
7965;SDS011;4028;43.272;26.932;2023-07-29T09:50:14;5.00;;;3.22;;
7965;SDS011;4028;43.272;26.932;2023-07-29T09:52:39;4.13;;;3.20;;
7965;SDS011;4028;43.272;26.932;2023-07-29T09:55:06;4.20;;;3.42;;
7965;SDS011;4028;43.272;26.932;2023-07-29T09:57:32;3.40;;;3.10;;
7965;SDS011;4028;43.272;26.932;2023-07-29T09:59:58;3.92;;;3.10;;
7965;SDS011;4028;43.272;26.932;2023-07-29T10:02:24;5.65;;;3.67;;
7965;SDS011;4028;43.272;26.932;2023-07-29T10:04:52;3.40;;;2.78;;
7965;SDS011;4028;43.272;26.932;2023-07-29T10:07:19;3.78;;;3.40;;
7965;SDS011;4028;43.272;26.932;2023-07-29T10:09:45;3.28;;;3.00;;
7965;SDS011;4028;43.272;26.932;2023-07-29T10:12:13;4.25;;;3.47;;
7965;SDS011;4028;43.272;26.932;2023-07-29T10:14:39;3.50;;;3.13;;
7965;SDS011;4028;43.272;26.932;2023-07-29T10:17:04;3.30;;;2.88;;
7965;SDS011;4028;43.272;26.932;2023-07-29T10:19:31;7.32;;;3.08;;
7965;SDS011;4028;43.272;26.932;2023-07-29T10:21:58;3.90;;;3.10;;
7965;SDS011;4028;43.272;26.932;2023-07-29T10:24:28;3.97;;;2.78;;
7965;SDS011;4028;43.272;26.932;2023-07-29T10:26:58;3.22;;;2.92;;
7965;SDS011;4028;43.272;26.932;2023-07-29T10:29:32;3.72;;;3.10;;
7965;SDS011;4028;43.272;26.932;2023-07-29T10:32:04;3.45;;;3.15;;
7965;SDS011;4028;43.272;26.932;2023-07-29T10:34:31;5.03;;;3.13;;
7965;SDS011;4028;43.272;26.932;2023-07-29T10:36:59;3.33;;;2.85;;
7965;SDS011;4028;43.272;26.932;2023-07-29T10:39:25;4.15;;;3.10;;
7965;SDS011;4028;43.272;26.932;2023-07-29T10:41:54;3.55;;;3.05;;
7965;SDS011;4028;43.272;26.932;2023-07-29T10:47:14;3.70;;;3.30;;
7965;SDS011;4028;43.272;26.932;2023-07-29T10:49:51;3.22;;;3.03;;
7965;SDS011;4028;43.272;26.932;2023-07-29T10:52:31;3.28;;;2.70;;
7965;SDS011;4028;43.272;26.932;2023-07-29T10:55:22;3.15;;;2.95;;
7965;SDS011;4028;43.272;26.932;2023-07-29T10:57:52;3.53;;;3.22;;
7965;SDS011;4028;43.272;26.932;2023-07-29T11:00:30;2.85;;;2.60;;
7965;SDS011;4028;43.272;26.932;2023-07-29T11:03:04;3.83;;;2.90;;
7965;SDS011;4028;43.272;26.932;2023-07-29T11:05:44;2.78;;;2.55;;
7965;SDS011;4028;43.272;26.932;2023-07-29T11:08:29;6.30;;;3.28;;
7965;SDS011;4028;43.272;26.932;2023-07-29T11:10:59;3.65;;;2.83;;
7965;SDS011;4028;43.272;26.932;2023-07-29T11:13:27;3.45;;;2.67;;
7965;SDS011;4028;43.272;26.932;2023-07-29T11:15:54;2.72;;;2.50;;
7965;SDS011;4028;43.272;26.932;2023-07-29T11:18:21;3.05;;;2.85;;
7965;SDS011;4028;43.272;26.932;2023-07-29T11:20:46;2.67;;;2.47;;
7965;SDS011;4028;43.272;26.932;2023-07-29T11:23:13;2.80;;;2.60;;
7965;SDS011;4028;43.272;26.932;2023-07-29T11:25:38;3.03;;;2.70;;
7965;SDS011;4028;43.272;26.932;2023-07-29T11:28:04;2.90;;;2.70;;
7965;SDS011;4028;43.272;26.932;2023-07-29T11:30:30;3.33;;;2.90;;
7965;SDS011;4028;43.272;26.932;2023-07-29T11:32:56;2.92;;;2.72;;
7965;SDS011;4028;43.272;26.932;2023-07-29T11:35:22;3.25;;;2.60;;
7965;SDS011;4028;43.272;26.932;2023-07-29T11:37:49;2.75;;;2.55;;
7965;SDS011;4028;43.272;26.932;2023-07-29T11:40:19;3.33;;;2.70;;
7965;SDS011;4028;43.272;26.932;2023-07-29T11:42:46;2.65;;;2.45;;
7965;SDS011;4028;43.272;26.932;2023-07-29T11:45:13;2.70;;;2.50;;
7965;SDS011;4028;43.272;26.932;2023-07-29T11:47:39;3.33;;;2.80;;
7965;SDS011;4028;43.272;26.932;2023-07-29T11:50:06;3.00;;;2.70;;
7965;SDS011;4028;43.272;26.932;2023-07-29T11:52:34;4.28;;;2.60;;
7965;SDS011;4028;43.272;26.932;2023-07-29T11:55:01;2.72;;;2.53;;
7965;SDS011;4028;43.272;26.932;2023-07-29T11:57:28;3.35;;;3.03;;
7965;SDS011;4028;43.272;26.932;2023-07-29T11:59:54;3.05;;;2.83;;
7965;SDS011;4028;43.272;26.932;2023-07-29T12:02:20;3.13;;;2.92;;
7965;SDS011;4028;43.272;26.932;2023-07-29T12:04:48;2.70;;;2.50;;
7965;SDS011;4028;43.272;26.932;2023-07-29T12:07:14;3.83;;;2.55;;
7965;SDS011;4028;43.272;26.932;2023-07-29T12:09:41;2.80;;;2.60;;
7965;SDS011;4028;43.272;26.932;2023-07-29T12:12:08;3.72;;;2.70;;
7965;SDS011;4028;43.272;26.932;2023-07-29T12:14:34;2.90;;;2.70;;
7965;SDS011;4028;43.272;26.932;2023-07-29T12:17:03;2.60;;;2.40;;
7965;SDS011;4028;43.272;26.932;2023-07-29T12:22:00;3.58;;;2.42;;
7965;SDS011;4028;43.272;26.932;2023-07-29T12:24:31;3.08;;;2.70;;
7965;SDS011;4028;43.272;26.932;2023-07-29T12:26:58;3.05;;;2.85;;
7965;SDS011;4028;43.272;26.932;2023-07-29T12:29:24;2.70;;;2.50;;
7965;SDS011;4028;43.272;26.932;2023-07-29T12:32:00;2.75;;;2.55;;
7965;SDS011;4028;43.272;26.932;2023-07-29T12:34:27;3.10;;;2.80;;
7965;SDS011;4028;43.272;26.932;2023-07-29T12:36:54;3.03;;;2.63;;
7965;SDS011;4028;43.272;26.932;2023-07-29T12:39:22;2.60;;;2.40;;
7965;SDS011;4028;43.272;26.932;2023-07-29T12:41:49;2.47;;;2.30;;
7965;SDS011;4028;43.272;26.932;2023-07-29T12:44:15;2.88;;;2.67;;
7965;SDS011;4028;43.272;26.932;2023-07-29T12:46:41;2.97;;;2.40;;
7965;SDS011;4028;43.272;26.932;2023-07-29T12:49:07;3.58;;;2.58;;
7965;SDS011;4028;43.272;26.932;2023-07-29T12:51:33;3.08;;;2.08;;
7965;SDS011;4028;43.272;26.932;2023-07-29T12:53:59;2.75;;;2.55;;
7965;SDS011;4028;43.272;26.932;2023-07-29T12:56:25;2.88;;;2.45;;
7965;SDS011;4028;43.272;26.932;2023-07-29T12:58:51;2.90;;;2.60;;
7965;SDS011;4028;43.272;26.932;2023-07-29T13:01:17;2.58;;;2.38;;
7965;SDS011;4028;43.272;26.932;2023-07-29T13:03:43;2.65;;;2.45;;
7965;SDS011;4028;43.272;26.932;2023-07-29T13:06:09;7.50;;;3.35;;
7965;SDS011;4028;43.272;26.932;2023-07-29T13:08:34;2.50;;;2.30;;
7965;SDS011;4028;43.272;26.932;2023-07-29T13:10:59;2.60;;;2.40;;
7965;SDS011;4028;43.272;26.932;2023-07-29T13:13:25;2.90;;;2.70;;
7965;SDS011;4028;43.272;26.932;2023-07-29T13:15:50;3.95;;;2.70;;
7965;SDS011;4028;43.272;26.932;2023-07-29T13:18:16;2.35;;;2.15;;
7965;SDS011;4028;43.272;26.932;2023-07-29T13:20:41;2.60;;;2.40;;
7965;SDS011;4028;43.272;26.932;2023-07-29T13:23:07;2.97;;;2.78;;
7965;SDS011;4028;43.272;26.932;2023-07-29T13:25:32;3.28;;;2.97;;
7965;SDS011;4028;43.272;26.932;2023-07-29T13:27:58;3.85;;;2.60;;
7965;SDS011;4028;43.272;26.932;2023-07-29T13:30:23;2.83;;;2.63;;
7965;SDS011;4028;43.272;26.932;2023-07-29T13:32:49;4.07;;;3.67;;
7965;SDS011;4028;43.272;26.932;2023-07-29T13:35:14;2.75;;;2.55;;
7965;SDS011;4028;43.272;26.932;2023-07-29T13:37:40;4.93;;;3.00;;
7965;SDS011;4028;43.272;26.932;2023-07-29T13:40:05;2.83;;;2.30;;
7965;SDS011;4028;43.272;26.932;2023-07-29T13:42:31;3.17;;;2.95;;
7965;SDS011;4028;43.272;26.932;2023-07-29T13:44:57;3.00;;;2.80;;
7965;SDS011;4028;43.272;26.932;2023-07-29T13:47:22;2.75;;;2.50;;
7965;SDS011;4028;43.272;26.932;2023-07-29T13:49:48;2.80;;;2.60;;
7965;SDS011;4028;43.272;26.932;2023-07-29T13:52:13;3.70;;;3.40;;
7965;SDS011;4028;43.272;26.932;2023-07-29T13:54:39;3.83;;;3.25;;
7965;SDS011;4028;43.272;26.932;2023-07-29T13:57:05;3.70;;;3.40;;
7965;SDS011;4028;43.272;26.932;2023-07-29T13:59:31;3.20;;;2.67;;
7965;SDS011;4028;43.272;26.932;2023-07-29T14:01:57;4.40;;;2.70;;
7965;SDS011;4028;43.272;26.932;2023-07-29T14:04:23;3.38;;;2.75;;
7965;SDS011;4028;43.272;26.932;2023-07-29T14:06:48;3.60;;;2.80;;
7965;SDS011;4028;43.272;26.932;2023-07-29T14:09:14;2.90;;;2.70;;
7965;SDS011;4028;43.272;26.932;2023-07-29T14:11:39;4.32;;;3.92;;
7965;SDS011;4028;43.272;26.932;2023-07-29T14:14:05;3.55;;;3.10;;
7965;SDS011;4028;43.272;26.932;2023-07-29T14:16:30;3.05;;;2.75;;
7965;SDS011;4028;43.272;26.932;2023-07-29T14:18:55;3.03;;;2.83;;
7965;SDS011;4028;43.272;26.932;2023-07-29T14:21:21;3.47;;;3.05;;
7965;SDS011;4028;43.272;26.932;2023-07-29T14:23:46;2.90;;;2.65;;
7965;SDS011;4028;43.272;26.932;2023-07-29T14:26:12;2.70;;;2.50;;
7965;SDS011;4028;43.272;26.932;2023-07-29T14:28:37;3.28;;;2.97;;
7965;SDS011;4028;43.272;26.932;2023-07-29T14:31:03;3.38;;;3.08;;
7965;SDS011;4028;43.272;26.932;2023-07-29T14:33:28;3.28;;;2.97;;
7965;SDS011;4028;43.272;26.932;2023-07-29T14:35:54;3.03;;;2.83;;
7965;SDS011;4028;43.272;26.932;2023-07-29T14:38:19;3.00;;;2.70;;
7965;SDS011;4028;43.272;26.932;2023-07-29T14:40:47;3.10;;;2.90;;
7965;SDS011;4028;43.272;26.932;2023-07-29T14:43:13;2.88;;;2.67;;
7965;SDS011;4028;43.272;26.932;2023-07-29T14:45:38;2.67;;;2.47;;
7965;SDS011;4028;43.272;26.932;2023-07-29T14:48:04;3.85;;;2.78;;
7965;SDS011;4028;43.272;26.932;2023-07-29T14:50:29;3.22;;;2.97;;
7965;SDS011;4028;43.272;26.932;2023-07-29T14:52:55;2.63;;;2.42;;
7965;SDS011;4028;43.272;26.932;2023-07-29T14:55:20;2.90;;;2.70;;
7965;SDS011;4028;43.272;26.932;2023-07-29T14:57:46;2.92;;;2.70;;
7965;SDS011;4028;43.272;26.932;2023-07-29T15:00:12;3.00;;;2.58;;
7965;SDS011;4028;43.272;26.932;2023-07-29T15:02:39;4.10;;;2.92;;
7965;SDS011;4028;43.272;26.932;2023-07-29T15:05:05;3.85;;;2.97;;
7965;SDS011;4028;43.272;26.932;2023-07-29T15:07:31;3.58;;;2.50;;
7965;SDS011;4028;43.272;26.932;2023-07-29T15:09:57;3.33;;;2.60;;
7965;SDS011;4028;43.272;26.932;2023-07-29T15:12:22;2.97;;;2.55;;
7965;SDS011;4028;43.272;26.932;2023-07-29T15:14:49;2.70;;;2.50;;